sensor_id;sensor_type;location;lat;lon;timestamp;P1;durP1;ratioP1;P2;durP2;ratioP2
52798;SDS011;38667;42.872;74.622;2024-01-25T00:01:33;29.00;;;12.27;;
52798;SDS011;38667;42.872;74.622;2024-01-25T00:04:00;32.07;;;13.73;;
52798;SDS011;38667;42.872;74.622;2024-01-25T00:06:26;39.33;;;13.63;;
52798;SDS011;38667;42.872;74.622;2024-01-25T00:08:53;37.67;;;13.87;;
52798;SDS011;38667;42.872;74.622;2024-01-25T00:11:19;33.87;;;12.30;;
52798;SDS011;38667;42.872;74.622;2024-01-25T00:13:45;41.50;;;11.57;;
52798;SDS011;38667;42.872;74.622;2024-01-25T00:16:12;26.33;;;10.70;;
52798;SDS011;38667;42.872;74.622;2024-01-25T00:18:40;30.10;;;10.73;;
52798;SDS011;38667;42.872;74.622;2024-01-25T00:21:06;35.17;;;12.07;;
52798;SDS011;38667;42.872;74.622;2024-01-25T00:23:32;45.47;;;12.60;;
52798;SDS011;38667;42.872;74.622;2024-01-25T00:25:59;44.73;;;16.30;;
52798;SDS011;38667;42.872;74.622;2024-01-25T00:28:25;67.00;;;25.87;;
52798;SDS011;38667;42.872;74.622;2024-01-25T00:30:52;40.40;;;11.77;;
52798;SDS011;38667;42.872;74.622;2024-01-25T00:33:18;38.60;;;11.53;;
52798;SDS011;38667;42.872;74.622;2024-01-25T00:35:46;45.43;;;13.97;;
52798;SDS011;38667;42.872;74.622;2024-01-25T00:38:13;43.50;;;17.53;;
52798;SDS011;38667;42.872;74.622;2024-01-25T00:40:40;38.40;;;18.37;;
52798;SDS011;38667;42.872;74.622;2024-01-25T00:43:07;41.80;;;19.13;;
52798;SDS011;38667;42.872;74.622;2024-01-25T00:45:35;35.27;;;17.50;;
52798;SDS011;38667;42.872;74.622;2024-01-25T00:48:01;40.30;;;17.40;;
52798;SDS011;38667;42.872;74.622;2024-01-25T00:50:28;45.10;;;17.83;;
52798;SDS011;38667;42.872;74.622;2024-01-25T00:52:57;61.90;;;24.53;;
52798;SDS011;38667;42.872;74.622;2024-01-25T00:55:24;59.70;;;23.50;;
52798;SDS011;38667;42.872;74.622;2024-01-25T00:57:51;36.90;;;15.00;;
52798;SDS011;38667;42.872;74.622;2024-01-25T01:00:18;56.80;;;22.77;;
52798;SDS011;38667;42.872;74.622;2024-01-25T01:02:45;44.40;;;16.20;;
52798;SDS011;38667;42.872;74.622;2024-01-25T01:05:12;40.47;;;16.60;;
52798;SDS011;38667;42.872;74.622;2024-01-25T01:07:40;37.07;;;16.43;;
52798;SDS011;38667;42.872;74.622;2024-01-25T01:10:08;47.47;;;18.87;;
52798;SDS011;38667;42.872;74.622;2024-01-25T01:12:35;51.77;;;20.27;;
52798;SDS011;38667;42.872;74.622;2024-01-25T01:15:02;54.63;;;23.30;;
52798;SDS011;38667;42.872;74.622;2024-01-25T01:17:29;58.27;;;25.23;;
52798;SDS011;38667;42.872;74.622;2024-01-25T01:19:55;66.73;;;25.23;;
52798;SDS011;38667;42.872;74.622;2024-01-25T01:22:22;62.13;;;25.83;;
52798;SDS011;38667;42.872;74.622;2024-01-25T01:24:48;65.30;;;25.50;;
52798;SDS011;38667;42.872;74.622;2024-01-25T01:27:16;66.33;;;27.00;;
52798;SDS011;38667;42.872;74.622;2024-01-25T01:29:42;76.27;;;30.77;;
52798;SDS011;38667;42.872;74.622;2024-01-25T01:32:09;74.47;;;29.17;;
52798;SDS011;38667;42.872;74.622;2024-01-25T01:34:35;79.63;;;33.27;;
52798;SDS011;38667;42.872;74.622;2024-01-25T01:37:02;91.47;;;34.07;;
52798;SDS011;38667;42.872;74.622;2024-01-25T01:39:28;68.07;;;31.00;;
52798;SDS011;38667;42.872;74.622;2024-01-25T01:41:55;97.20;;;38.40;;
52798;SDS011;38667;42.872;74.622;2024-01-25T01:44:23;94.90;;;40.40;;
52798;SDS011;38667;42.872;74.622;2024-01-25T01:46:49;79.10;;;31.03;;
52798;SDS011;38667;42.872;74.622;2024-01-25T01:49:16;95.50;;;37.23;;
52798;SDS011;38667;42.872;74.622;2024-01-25T01:51:43;77.63;;;30.00;;
52798;SDS011;38667;42.872;74.622;2024-01-25T01:54:10;78.47;;;30.23;;
52798;SDS011;38667;42.872;74.622;2024-01-25T01:56:36;57.37;;;23.40;;
52798;SDS011;38667;42.872;74.622;2024-01-25T01:59:04;89.27;;;31.97;;
52798;SDS011;38667;42.872;74.622;2024-01-25T02:01:34;139.67;;;50.80;;
52798;SDS011;38667;42.872;74.622;2024-01-25T02:04:01;118.30;;;43.87;;
52798;SDS011;38667;42.872;74.622;2024-01-25T02:06:27;135.43;;;49.40;;
52798;SDS011;38667;42.872;74.622;2024-01-25T02:08:53;146.57;;;51.17;;
52798;SDS011;38667;42.872;74.622;2024-01-25T02:11:20;114.90;;;46.10;;
52798;SDS011;38667;42.872;74.622;2024-01-25T02:13:46;79.83;;;34.53;;
52798;SDS011;38667;42.872;74.622;2024-01-25T02:16:12;83.13;;;32.83;;
52798;SDS011;38667;42.872;74.622;2024-01-25T02:18:41;103.97;;;39.63;;
52798;SDS011;38667;42.872;74.622;2024-01-25T02:21:07;80.60;;;32.90;;
52798;SDS011;38667;42.872;74.622;2024-01-25T02:23:35;105.77;;;42.03;;
52798;SDS011;38667;42.872;74.622;2024-01-25T02:26:01;85.80;;;30.77;;
52798;SDS011;38667;42.872;74.622;2024-01-25T02:28:28;80.17;;;31.23;;
52798;SDS011;38667;42.872;74.622;2024-01-25T02:30:54;85.47;;;32.33;;
52798;SDS011;38667;42.872;74.622;2024-01-25T02:33:21;84.67;;;27.93;;
52798;SDS011;38667;42.872;74.622;2024-01-25T02:35:47;83.20;;;23.83;;
52798;SDS011;38667;42.872;74.622;2024-01-25T02:38:13;56.93;;;19.23;;
52798;SDS011;38667;42.872;74.622;2024-01-25T02:40:41;107.10;;;32.93;;
52798;SDS011;38667;42.872;74.622;2024-01-25T02:43:08;92.93;;;32.63;;
52798;SDS011;38667;42.872;74.622;2024-01-25T02:45:34;63.90;;;26.83;;
52798;SDS011;38667;42.872;74.622;2024-01-25T02:48:00;88.63;;;32.83;;
52798;SDS011;38667;42.872;74.622;2024-01-25T02:50:27;98.60;;;32.90;;
52798;SDS011;38667;42.872;74.622;2024-01-25T02:52:53;91.77;;;32.47;;
52798;SDS011;38667;42.872;74.622;2024-01-25T02:55:20;84.00;;;33.13;;
52798;SDS011;38667;42.872;74.622;2024-01-25T02:57:48;94.93;;;31.93;;
52798;SDS011;38667;42.872;74.622;2024-01-25T03:00:14;92.10;;;31.60;;
52798;SDS011;38667;42.872;74.622;2024-01-25T03:02:40;83.20;;;29.23;;
52798;SDS011;38667;42.872;74.622;2024-01-25T03:05:07;86.17;;;29.37;;
52798;SDS011;38667;42.872;74.622;2024-01-25T03:07:33;99.73;;;31.50;;
52798;SDS011;38667;42.872;74.622;2024-01-25T03:10:00;91.73;;;31.03;;
52798;SDS011;38667;42.872;74.622;2024-01-25T03:12:26;97.07;;;32.70;;
52798;SDS011;38667;42.872;74.622;2024-01-25T03:14:54;103.00;;;31.60;;
52798;SDS011;38667;42.872;74.622;2024-01-25T03:17:21;101.33;;;29.73;;
52798;SDS011;38667;42.872;74.622;2024-01-25T03:19:47;75.67;;;27.97;;
52798;SDS011;38667;42.872;74.622;2024-01-25T03:22:13;127.37;;;39.83;;
52798;SDS011;38667;42.872;74.622;2024-01-25T03:24:40;134.90;;;41.80;;
52798;SDS011;38667;42.872;74.622;2024-01-25T03:27:06;103.00;;;35.43;;
52798;SDS011;38667;42.872;74.622;2024-01-25T03:29:32;91.10;;;35.50;;
52798;SDS011;38667;42.872;74.622;2024-01-25T03:32:00;110.63;;;39.00;;
52798;SDS011;38667;42.872;74.622;2024-01-25T03:34:27;116.10;;;38.87;;
52798;SDS011;38667;42.872;74.622;2024-01-25T03:36:53;118.77;;;38.33;;
52798;SDS011;38667;42.872;74.622;2024-01-25T03:39:19;128.60;;;44.53;;
52798;SDS011;38667;42.872;74.622;2024-01-25T03:41:46;116.00;;;44.83;;
52798;SDS011;38667;42.872;74.622;2024-01-25T03:44:12;108.37;;;35.90;;
52798;SDS011;38667;42.872;74.622;2024-01-25T03:46:39;82.63;;;27.90;;
52798;SDS011;38667;42.872;74.622;2024-01-25T03:49:07;56.23;;;22.00;;
52798;SDS011;38667;42.872;74.622;2024-01-25T03:51:33;52.50;;;22.33;;
52798;SDS011;38667;42.872;74.622;2024-01-25T03:53:59;89.67;;;29.13;;
52798;SDS011;38667;42.872;74.622;2024-01-25T03:56:26;106.20;;;36.13;;
52798;SDS011;38667;42.872;74.622;2024-01-25T03:58:52;164.20;;;59.13;;
52798;SDS011;38667;42.872;74.622;2024-01-25T04:01:18;173.23;;;68.20;;
52798;SDS011;38667;42.872;74.622;2024-01-25T04:03:45;189.67;;;72.23;;
52798;SDS011;38667;42.872;74.622;2024-01-25T04:06:13;194.40;;;74.60;;
52798;SDS011;38667;42.872;74.622;2024-01-25T04:08:39;196.70;;;70.90;;
52798;SDS011;38667;42.872;74.622;2024-01-25T04:11:05;184.73;;;68.07;;
52798;SDS011;38667;42.872;74.622;2024-01-25T04:13:32;197.57;;;70.37;;
52798;SDS011;38667;42.872;74.622;2024-01-25T04:15:58;176.87;;;72.77;;
52798;SDS011;38667;42.872;74.622;2024-01-25T04:18:25;175.00;;;70.73;;
52798;SDS011;38667;42.872;74.622;2024-01-25T04:20:51;178.40;;;63.67;;
52798;SDS011;38667;42.872;74.622;2024-01-25T04:23:20;190.37;;;64.83;;
52798;SDS011;38667;42.872;74.622;2024-01-25T04:25:46;185.50;;;63.07;;
52798;SDS011;38667;42.872;74.622;2024-01-25T04:28:12;163.93;;;54.67;;
52798;SDS011;38667;42.872;74.622;2024-01-25T04:30:39;147.40;;;55.70;;
52798;SDS011;38667;42.872;74.622;2024-01-25T04:33:05;142.40;;;48.53;;
52798;SDS011;38667;42.872;74.622;2024-01-25T04:35:31;131.53;;;45.37;;
52798;SDS011;38667;42.872;74.622;2024-01-25T04:37:58;129.03;;;42.57;;
52798;SDS011;38667;42.872;74.622;2024-01-25T04:40:26;108.83;;;41.53;;
52798;SDS011;38667;42.872;74.622;2024-01-25T04:42:52;112.10;;;38.47;;
52798;SDS011;38667;42.872;74.622;2024-01-25T04:45:18;113.63;;;42.10;;
52798;SDS011;38667;42.872;74.622;2024-01-25T04:47:45;114.37;;;42.17;;
52798;SDS011;38667;42.872;74.622;2024-01-25T04:50:11;119.00;;;45.07;;
52798;SDS011;38667;42.872;74.622;2024-01-25T04:52:38;114.50;;;44.13;;
52798;SDS011;38667;42.872;74.622;2024-01-25T04:55:04;186.93;;;51.07;;
52798;SDS011;38667;42.872;74.622;2024-01-25T04:57:32;142.83;;;48.30;;
52798;SDS011;38667;42.872;74.622;2024-01-25T04:59:59;138.30;;;52.00;;
52798;SDS011;38667;42.872;74.622;2024-01-25T05:02:25;139.17;;;55.63;;
52798;SDS011;38667;42.872;74.622;2024-01-25T05:04:51;156.30;;;58.47;;
52798;SDS011;38667;42.872;74.622;2024-01-25T05:07:18;163.67;;;60.90;;
52798;SDS011;38667;42.872;74.622;2024-01-25T05:09:44;155.97;;;61.23;;
52798;SDS011;38667;42.872;74.622;2024-01-25T05:12:11;163.20;;;58.10;;
52798;SDS011;38667;42.872;74.622;2024-01-25T05:14:39;159.93;;;56.10;;
52798;SDS011;38667;42.872;74.622;2024-01-25T05:17:06;138.63;;;53.80;;
52798;SDS011;38667;42.872;74.622;2024-01-25T05:19:32;155.70;;;58.90;;
52798;SDS011;38667;42.872;74.622;2024-01-25T05:21:58;154.70;;;59.85;;
52798;SDS011;38667;42.872;74.622;2024-01-25T05:24:25;178.20;;;72.40;;
52798;SDS011;38667;42.872;74.622;2024-01-25T05:26:51;167.07;;;65.40;;
52798;SDS011;38667;42.872;74.622;2024-01-25T05:29:17;180.25;;;68.35;;
52798;SDS011;38667;42.872;74.622;2024-01-25T05:31:45;172.23;;;70.45;;
52798;SDS011;38667;42.872;74.622;2024-01-25T05:34:12;188.75;;;72.10;;
52798;SDS011;38667;42.872;74.622;2024-01-25T05:36:38;175.50;;;72.97;;
52798;SDS011;38667;42.872;74.622;2024-01-25T05:39:04;181.48;;;75.57;;
52798;SDS011;38667;42.872;74.622;2024-01-25T05:41:31;160.18;;;73.63;;
52798;SDS011;38667;42.872;74.622;2024-01-25T05:43:57;182.23;;;79.57;;
52798;SDS011;38667;42.872;74.622;2024-01-25T05:46:24;204.35;;;90.88;;
52798;SDS011;38667;42.872;74.622;2024-01-25T05:48:51;261.67;;;123.50;;
52798;SDS011;38667;42.872;74.622;2024-01-25T05:51:18;281.30;;;133.75;;
52798;SDS011;38667;42.872;74.622;2024-01-25T05:53:44;280.75;;;134.75;;
52798;SDS011;38667;42.872;74.622;2024-01-25T05:56:11;284.80;;;137.32;;
52798;SDS011;38667;42.872;74.622;2024-01-25T05:58:37;285.20;;;136.15;;
52798;SDS011;38667;42.872;74.622;2024-01-25T06:01:03;251.98;;;121.47;;
52798;SDS011;38667;42.872;74.622;2024-01-25T06:03:30;218.40;;;102.35;;
52798;SDS011;38667;42.872;74.622;2024-01-25T06:05:58;170.60;;;83.80;;
52798;SDS011;38667;42.872;74.622;2024-01-25T06:08:25;186.32;;;79.18;;
52798;SDS011;38667;42.872;74.622;2024-01-25T06:10:51;174.32;;;76.25;;
52798;SDS011;38667;42.872;74.622;2024-01-25T06:13:17;160.73;;;71.22;;
52798;SDS011;38667;42.872;74.622;2024-01-25T06:15:44;104.15;;;49.35;;
52798;SDS011;38667;42.872;74.622;2024-01-25T06:18:10;111.38;;;47.67;;
52798;SDS011;38667;42.872;74.622;2024-01-25T06:20:36;97.63;;;42.95;;
52798;SDS011;38667;42.872;74.622;2024-01-25T06:23:05;92.82;;;39.15;;
52798;SDS011;38667;42.872;74.622;2024-01-25T06:25:31;88.07;;;36.72;;
52798;SDS011;38667;42.872;74.622;2024-01-25T06:27:57;69.25;;;31.38;;
52798;SDS011;38667;42.872;74.622;2024-01-25T06:30:24;56.00;;;21.70;;
52798;SDS011;38667;42.872;74.622;2024-01-25T06:32:50;35.38;;;16.58;;
52798;SDS011;38667;42.872;74.622;2024-01-25T06:35:16;48.65;;;18.42;;
52798;SDS011;38667;42.872;74.622;2024-01-25T06:37:43;57.00;;;19.15;;
52798;SDS011;38667;42.872;74.622;2024-01-25T06:40:12;39.30;;;11.57;;
52798;SDS011;38667;42.872;74.622;2024-01-25T06:42:38;25.42;;;11.77;;
52798;SDS011;38667;42.872;74.622;2024-01-25T06:45:05;29.08;;;10.50;;
52798;SDS011;38667;42.872;74.622;2024-01-25T06:47:31;34.38;;;11.20;;
52798;SDS011;38667;42.872;74.622;2024-01-25T06:49:58;27.15;;;12.38;;
52798;SDS011;38667;42.872;74.622;2024-01-25T06:52:24;32.80;;;13.30;;
52798;SDS011;38667;42.872;74.622;2024-01-25T06:54:50;44.60;;;18.65;;
52798;SDS011;38667;42.872;74.622;2024-01-25T06:57:19;45.17;;;14.85;;
52798;SDS011;38667;42.872;74.622;2024-01-25T06:59:46;51.70;;;15.18;;
52798;SDS011;38667;42.872;74.622;2024-01-25T07:02:12;41.15;;;14.90;;
52798;SDS011;38667;42.872;74.622;2024-01-25T07:04:38;39.50;;;14.88;;
52798;SDS011;38667;42.872;74.622;2024-01-25T07:07:05;44.53;;;16.23;;
52798;SDS011;38667;42.872;74.622;2024-01-25T07:09:31;47.65;;;17.42;;
52798;SDS011;38667;42.872;74.622;2024-01-25T07:11:57;51.45;;;19.08;;
52798;SDS011;38667;42.872;74.622;2024-01-25T07:14:26;63.47;;;23.23;;
52798;SDS011;38667;42.872;74.622;2024-01-25T07:16:52;66.75;;;24.75;;
52798;SDS011;38667;42.872;74.622;2024-01-25T07:19:19;72.38;;;25.02;;
52798;SDS011;38667;42.872;74.622;2024-01-25T07:21:45;62.70;;;26.10;;
52798;SDS011;38667;42.872;74.622;2024-01-25T07:24:12;88.18;;;29.38;;
52798;SDS011;38667;42.872;74.622;2024-01-25T07:26:38;61.28;;;23.30;;
52798;SDS011;38667;42.872;74.622;2024-01-25T07:29:04;79.38;;;25.65;;
52798;SDS011;38667;42.872;74.622;2024-01-25T07:31:33;60.60;;;22.27;;
52798;SDS011;38667;42.872;74.622;2024-01-25T07:33:59;73.78;;;28.05;;
52798;SDS011;38667;42.872;74.622;2024-01-25T07:36:26;50.75;;;22.95;;
52798;SDS011;38667;42.872;74.622;2024-01-25T07:38:52;58.65;;;21.55;;
52798;SDS011;38667;42.872;74.622;2024-01-25T07:41:18;53.72;;;22.77;;
52798;SDS011;38667;42.872;74.622;2024-01-25T07:43:45;51.40;;;21.52;;
52798;SDS011;38667;42.872;74.622;2024-01-25T07:46:12;64.88;;;23.27;;
52798;SDS011;38667;42.872;74.622;2024-01-25T07:48:41;46.22;;;18.65;;
52798;SDS011;38667;42.872;74.622;2024-01-25T07:51:10;38.78;;;18.85;;
52798;SDS011;38667;42.872;74.622;2024-01-25T07:53:37;34.25;;;16.17;;
52798;SDS011;38667;42.872;74.622;2024-01-25T07:56:03;39.40;;;17.77;;
52798;SDS011;38667;42.872;74.622;2024-01-25T07:58:32;35.20;;;16.95;;
52798;SDS011;38667;42.872;74.622;2024-01-25T08:00:59;37.67;;;15.40;;
52798;SDS011;38667;42.872;74.622;2024-01-25T08:03:27;34.65;;;13.27;;
52798;SDS011;38667;42.872;74.622;2024-01-25T08:05:55;31.45;;;13.90;;
52798;SDS011;38667;42.872;74.622;2024-01-25T08:08:21;37.95;;;15.40;;
52798;SDS011;38667;42.872;74.622;2024-01-25T08:10:48;34.88;;;13.57;;
52798;SDS011;38667;42.872;74.622;2024-01-25T08:13:14;39.63;;;12.40;;
52798;SDS011;38667;42.872;74.622;2024-01-25T08:15:41;34.22;;;12.75;;
52798;SDS011;38667;42.872;74.622;2024-01-25T08:18:08;33.10;;;12.38;;
52798;SDS011;38667;42.872;74.622;2024-01-25T08:20:36;25.27;;;13.32;;
52798;SDS011;38667;42.872;74.622;2024-01-25T08:23:05;29.63;;;14.27;;
52798;SDS011;38667;42.872;74.622;2024-01-25T08:25:31;40.85;;;18.15;;
52798;SDS011;38667;42.872;74.622;2024-01-25T08:27:57;44.60;;;16.48;;
52798;SDS011;38667;42.872;74.622;2024-01-25T08:30:24;57.28;;;24.40;;
52798;SDS011;38667;42.872;74.622;2024-01-25T08:32:50;55.70;;;26.00;;
52798;SDS011;38667;42.872;74.622;2024-01-25T08:35:16;42.63;;;16.80;;
52798;SDS011;38667;42.872;74.622;2024-01-25T08:37:43;33.80;;;13.40;;
52798;SDS011;38667;42.872;74.622;2024-01-25T08:40:11;37.15;;;13.65;;
52798;SDS011;38667;42.872;74.622;2024-01-25T08:42:38;38.38;;;15.55;;
52798;SDS011;38667;42.872;74.622;2024-01-25T08:45:05;50.05;;;18.70;;
52798;SDS011;38667;42.872;74.622;2024-01-25T08:47:32;40.13;;;17.30;;
52798;SDS011;38667;42.872;74.622;2024-01-25T08:49:59;45.88;;;17.92;;
52798;SDS011;38667;42.872;74.622;2024-01-25T08:52:25;47.40;;;18.67;;
52798;SDS011;38667;42.872;74.622;2024-01-25T08:54:51;33.63;;;16.70;;
52798;SDS011;38667;42.872;74.622;2024-01-25T08:57:19;38.13;;;16.83;;
52798;SDS011;38667;42.872;74.622;2024-01-25T08:59:46;37.67;;;15.85;;
52798;SDS011;38667;42.872;74.622;2024-01-25T09:02:12;33.78;;;14.63;;
52798;SDS011;38667;42.872;74.622;2024-01-25T09:04:38;39.03;;;15.07;;
52798;SDS011;38667;42.872;74.622;2024-01-25T09:07:05;50.42;;;16.23;;
52798;SDS011;38667;42.872;74.622;2024-01-25T09:09:31;36.13;;;14.98;;
52798;SDS011;38667;42.872;74.622;2024-01-25T09:11:58;50.55;;;16.20;;
52798;SDS011;38667;42.872;74.622;2024-01-25T09:14:26;60.53;;;18.30;;
52798;SDS011;38667;42.872;74.622;2024-01-25T09:16:52;70.60;;;20.83;;
52798;SDS011;38667;42.872;74.622;2024-01-25T09:19:18;49.47;;;15.98;;
52798;SDS011;38667;42.872;74.622;2024-01-25T09:21:45;41.38;;;13.25;;
52798;SDS011;38667;42.872;74.622;2024-01-25T09:24:11;34.25;;;12.60;;
52798;SDS011;38667;42.872;74.622;2024-01-25T09:26:37;38.08;;;12.32;;
52798;SDS011;38667;42.872;74.622;2024-01-25T09:29:04;44.38;;;17.67;;
52798;SDS011;38667;42.872;74.622;2024-01-25T09:31:32;38.28;;;19.63;;
52798;SDS011;38667;42.872;74.622;2024-01-25T09:33:58;52.67;;;21.10;;
52798;SDS011;38667;42.872;74.622;2024-01-25T09:36:24;44.47;;;20.63;;
52798;SDS011;38667;42.872;74.622;2024-01-25T09:38:51;42.00;;;19.70;;
52798;SDS011;38667;42.872;74.622;2024-01-25T09:41:17;54.97;;;18.23;;
52798;SDS011;38667;42.872;74.622;2024-01-25T09:43:43;32.83;;;17.30;;
52798;SDS011;38667;42.872;74.622;2024-01-25T09:46:12;43.45;;;18.17;;
52798;SDS011;38667;42.872;74.622;2024-01-25T09:48:40;39.85;;;18.27;;
52798;SDS011;38667;42.872;74.622;2024-01-25T09:51:07;47.65;;;19.27;;
52798;SDS011;38667;42.872;74.622;2024-01-25T09:53:34;38.63;;;16.30;;
52798;SDS011;38667;42.872;74.622;2024-01-25T09:56:03;33.42;;;15.48;;
52798;SDS011;38667;42.872;74.622;2024-01-25T09:58:34;42.08;;;18.10;;
52798;SDS011;38667;42.872;74.622;2024-01-25T10:01:03;50.72;;;21.80;;
52798;SDS011;38667;42.872;74.622;2024-01-25T10:03:32;50.38;;;24.00;;
52798;SDS011;38667;42.872;74.622;2024-01-25T10:06:00;49.55;;;25.05;;
52798;SDS011;38667;42.872;74.622;2024-01-25T10:08:27;52.97;;;24.15;;
52798;SDS011;38667;42.872;74.622;2024-01-25T10:10:54;46.08;;;23.25;;
52798;SDS011;38667;42.872;74.622;2024-01-25T10:13:20;45.97;;;24.73;;
52798;SDS011;38667;42.872;74.622;2024-01-25T10:15:46;58.05;;;30.73;;
52798;SDS011;38667;42.872;74.622;2024-01-25T10:18:13;64.40;;;33.70;;
52798;SDS011;38667;42.872;74.622;2024-01-25T10:20:41;68.85;;;33.67;;
52798;SDS011;38667;42.872;74.622;2024-01-25T10:23:09;68.55;;;34.92;;
52798;SDS011;38667;42.872;74.622;2024-01-25T10:25:36;62.45;;;34.55;;
52798;SDS011;38667;42.872;74.622;2024-01-25T10:28:03;76.50;;;40.75;;
52798;SDS011;38667;42.872;74.622;2024-01-25T10:30:31;79.90;;;39.90;;
52798;SDS011;38667;42.872;74.622;2024-01-25T10:32:58;80.68;;;37.65;;
52798;SDS011;38667;42.872;74.622;2024-01-25T10:35:26;71.55;;;37.10;;
52798;SDS011;38667;42.872;74.622;2024-01-25T10:37:52;83.03;;;38.15;;
52798;SDS011;38667;42.872;74.622;2024-01-25T10:40:21;79.28;;;41.65;;
52798;SDS011;38667;42.872;74.622;2024-01-25T10:42:48;87.13;;;42.50;;
52798;SDS011;38667;42.872;74.622;2024-01-25T10:45:14;79.53;;;39.40;;
52798;SDS011;38667;42.872;74.622;2024-01-25T10:47:41;84.13;;;41.28;;
52798;SDS011;38667;42.872;74.622;2024-01-25T10:50:07;86.90;;;43.63;;
52798;SDS011;38667;42.872;74.622;2024-01-25T10:52:34;78.22;;;42.65;;
52798;SDS011;38667;42.872;74.622;2024-01-25T10:55:02;88.03;;;44.47;;
52798;SDS011;38667;42.872;74.622;2024-01-25T10:57:36;86.90;;;46.03;;
52798;SDS011;38667;42.872;74.622;2024-01-25T11:00:03;124.07;;;47.97;;
52798;SDS011;38667;42.872;74.622;2024-01-25T11:02:32;91.03;;;45.08;;
52798;SDS011;38667;42.872;74.622;2024-01-25T11:05:01;96.70;;;45.80;;
52798;SDS011;38667;42.872;74.622;2024-01-25T11:07:40;95.47;;;46.03;;
52798;SDS011;38667;42.872;74.622;2024-01-25T11:10:10;90.47;;;46.15;;
52798;SDS011;38667;42.872;74.622;2024-01-25T11:12:48;94.57;;;45.80;;
52798;SDS011;38667;42.872;74.622;2024-01-25T11:15:17;95.07;;;45.28;;
52798;SDS011;38667;42.872;74.622;2024-01-25T11:17:50;93.55;;;45.97;;
52798;SDS011;38667;42.872;74.622;2024-01-25T11:20:19;98.47;;;49.80;;
52798;SDS011;38667;42.872;74.622;2024-01-25T11:22:47;112.90;;;49.50;;
52798;SDS011;38667;42.872;74.622;2024-01-25T11:25:18;98.97;;;50.65;;
52798;SDS011;38667;42.872;74.622;2024-01-25T11:27:45;99.45;;;47.65;;
52798;SDS011;38667;42.872;74.622;2024-01-25T11:30:13;83.63;;;45.00;;
52798;SDS011;38667;42.872;74.622;2024-01-25T11:32:42;85.10;;;45.55;;
52798;SDS011;38667;42.872;74.622;2024-01-25T11:35:09;94.63;;;48.60;;
52798;SDS011;38667;42.872;74.622;2024-01-25T11:37:35;107.75;;;49.33;;
52798;SDS011;38667;42.872;74.622;2024-01-25T11:40:03;103.45;;;50.75;;
52798;SDS011;38667;42.872;74.622;2024-01-25T11:42:30;105.20;;;50.47;;
52798;SDS011;38667;42.872;74.622;2024-01-25T11:44:58;103.30;;;49.67;;
52798;SDS011;38667;42.872;74.622;2024-01-25T11:47:24;91.95;;;44.67;;
52798;SDS011;38667;42.872;74.622;2024-01-25T11:49:51;92.90;;;45.00;;
52798;SDS011;38667;42.872;74.622;2024-01-25T11:52:17;86.57;;;41.50;;
52798;SDS011;38667;42.872;74.622;2024-01-25T11:54:44;90.25;;;38.60;;
52798;SDS011;38667;42.872;74.622;2024-01-25T11:57:10;77.60;;;37.90;;
52798;SDS011;38667;42.872;74.622;2024-01-25T11:59:37;70.82;;;34.72;;
52798;SDS011;38667;42.872;74.622;2024-01-25T12:02:05;72.97;;;34.33;;
52798;SDS011;38667;42.872;74.622;2024-01-25T12:04:32;72.95;;;35.08;;
52798;SDS011;38667;42.872;74.622;2024-01-25T12:06:59;75.03;;;36.75;;
52798;SDS011;38667;42.872;74.622;2024-01-25T12:09:25;86.18;;;38.70;;
52798;SDS011;38667;42.872;74.622;2024-01-25T12:11:51;77.65;;;38.42;;
52798;SDS011;38667;42.872;74.622;2024-01-25T12:14:18;82.10;;;38.75;;
52798;SDS011;38667;42.872;74.622;2024-01-25T12:16:44;82.45;;;38.55;;
52798;SDS011;38667;42.872;74.622;2024-01-25T12:19:12;78.50;;;38.08;;
52798;SDS011;38667;42.872;74.622;2024-01-25T12:21:40;84.28;;;39.55;;
52798;SDS011;38667;42.872;74.622;2024-01-25T12:24:09;82.30;;;41.65;;
52798;SDS011;38667;42.872;74.622;2024-01-25T12:26:36;87.18;;;41.67;;
52798;SDS011;38667;42.872;74.622;2024-01-25T12:29:02;100.05;;;39.83;;
52798;SDS011;38667;42.872;74.622;2024-01-25T12:31:29;89.43;;;41.58;;
52798;SDS011;38667;42.872;74.622;2024-01-25T12:33:56;87.13;;;42.05;;
52798;SDS011;38667;42.872;74.622;2024-01-25T12:36:24;83.25;;;40.63;;
52798;SDS011;38667;42.872;74.622;2024-01-25T12:38:50;83.07;;;40.70;;
52798;SDS011;38667;42.872;74.622;2024-01-25T12:41:16;91.75;;;41.05;;
52798;SDS011;38667;42.872;74.622;2024-01-25T12:43:43;80.78;;;39.38;;
52798;SDS011;38667;42.872;74.622;2024-01-25T12:46:09;101.00;;;41.92;;
52798;SDS011;38667;42.872;74.622;2024-01-25T12:48:36;97.85;;;42.60;;
52798;SDS011;38667;42.872;74.622;2024-01-25T12:51:02;94.85;;;41.00;;
52798;SDS011;38667;42.872;74.622;2024-01-25T12:53:30;76.57;;;38.22;;
52798;SDS011;38667;42.872;74.622;2024-01-25T12:55:57;90.93;;;38.33;;
52798;SDS011;38667;42.872;74.622;2024-01-25T12:58:23;93.95;;;39.47;;
52798;SDS011;38667;42.872;74.622;2024-01-25T13:00:49;79.88;;;37.60;;
52798;SDS011;38667;42.872;74.622;2024-01-25T13:03:16;78.07;;;37.78;;
52798;SDS011;38667;42.872;74.622;2024-01-25T13:05:42;88.93;;;39.10;;
52798;SDS011;38667;42.872;74.622;2024-01-25T13:08:09;77.05;;;37.80;;
52798;SDS011;38667;42.872;74.622;2024-01-25T13:10:36;77.72;;;37.83;;
52798;SDS011;38667;42.872;74.622;2024-01-25T13:13:03;97.30;;;39.85;;
52798;SDS011;38667;42.872;74.622;2024-01-25T13:15:29;157.15;;;65.05;;
52798;SDS011;38667;42.872;74.622;2024-01-25T13:17:56;235.15;;;104.60;;
52798;SDS011;38667;42.872;74.622;2024-01-25T13:20:22;218.15;;;91.93;;
52798;SDS011;38667;42.872;74.622;2024-01-25T13:22:49;302.05;;;133.70;;
52798;SDS011;38667;42.872;74.622;2024-01-25T13:25:15;310.70;;;140.80;;
52798;SDS011;38667;42.872;74.622;2024-01-25T13:27:43;277.95;;;130.18;;
52798;SDS011;38667;42.872;74.622;2024-01-25T13:30:10;275.40;;;124.03;;
52798;SDS011;38667;42.872;74.622;2024-01-25T13:32:36;309.48;;;124.90;;
52798;SDS011;38667;42.872;74.622;2024-01-25T13:35:03;289.08;;;128.45;;
52798;SDS011;38667;42.872;74.622;2024-01-25T13:37:30;341.42;;;152.80;;
52798;SDS011;38667;42.872;74.622;2024-01-25T13:39:56;339.42;;;150.85;;
52798;SDS011;38667;42.872;74.622;2024-01-25T13:42:23;474.73;;;227.70;;
52798;SDS011;38667;42.872;74.622;2024-01-25T13:44:51;529.70;;;269.30;;
52798;SDS011;38667;42.872;74.622;2024-01-25T13:47:17;504.98;;;244.82;;
52798;SDS011;38667;42.872;74.622;2024-01-25T13:49:43;465.42;;;227.85;;
52798;SDS011;38667;42.872;74.622;2024-01-25T13:52:14;443.73;;;224.05;;
52798;SDS011;38667;42.872;74.622;2024-01-25T13:54:43;418.92;;;208.88;;
52798;SDS011;38667;42.872;74.622;2024-01-25T13:57:09;404.60;;;195.85;;
52798;SDS011;38667;42.872;74.622;2024-01-25T13:59:36;295.17;;;135.40;;
52798;SDS011;38667;42.872;74.622;2024-01-25T14:02:04;125.75;;;55.63;;